KAKO/AKO METAR and TAF weather

Enter ICAO airport designator
Station Type Date Time Source
KAKO METAR 2021/09/27 05:53 UTC NOAA

KAKO 270553Z AUTO 14007KT 10SM CLR 19/M02 A2999 RMK AO2 SLP088 T01891022 10300 20189 50005


Station Type Date Time Source
KAKO Decoded METAR 2021/09/27 05:53 UTC NOAA

COLORADO PLAINS REGIONAL, CO, United States (KAKO) 40-10N 103-13W 1421M
Sep 27, 2021 - 01:53 AM EDT / 2021.09.27 0553 UTC
Wind: from the SE (140 degrees) at 8 MPH (7 KT):0
Visibility: 10 mile(s):0
Sky conditions: clear
Temperature: 66.0 F (18.9 C)
Dew Point: 28.0 F (-2.2 C)
Relative Humidity: 23%
Pressure (altimeter): 29.99 in. Hg (1015 hPa)
Pressure tendency: 0.01 inches (0.5 hPa) higher than three hours ago
ob: KAKO 270553Z AUTO 14007KT 10SM CLR 19/M02 A2999 RMK AO2 SLP088 T01891022 10300 20189 50005
cycle: 6

Station Type Date Time Source
KAKO TAF UTC NOAA

Error!

Example: see airport list